createdAt,value
2023-01-11T00:00:36.478Z,4.40
2023-01-11T00:03:24.883Z,4.40
2023-01-11T00:06:03.273Z,4.40
2023-01-11T00:08:39.773Z,4.40
2023-01-11T00:11:19.367Z,4.40
2023-01-11T00:13:55.577Z,4.40
2023-01-11T00:16:31.961Z,4.40
2023-01-11T00:19:08.738Z,4.36
2023-01-11T00:21:45.041Z,4.34
2023-01-11T00:24:21.356Z,4.30
2023-01-11T00:26:58.077Z,4.30
2023-01-11T00:29:34.303Z,4.30
2023-01-11T00:32:11.207Z,4.30
2023-01-11T00:34:47.407Z,4.32
2023-01-11T00:37:23.919Z,4.30
2023-01-11T00:40:00.166Z,4.30
2023-01-11T00:42:53.835Z,4.30
2023-01-11T00:45:47.866Z,4.30
2023-01-11T00:48:24.681Z,4.30
2023-01-11T00:51:01.896Z,4.22
2023-01-11T00:53:38.267Z,4.22
2023-01-11T00:56:14.930Z,4.22
2023-01-11T00:58:51.177Z,4.20
2023-01-11T01:01:27.457Z,4.20
2023-01-11T01:04:04.630Z,4.20
2023-01-11T01:06:40.946Z,4.20
2023-01-11T01:09:17.306Z,4.20
2023-01-11T01:11:53.596Z,4.20
2023-01-11T01:14:30.444Z,4.20
2023-01-11T01:17:09.646Z,4.20
2023-01-11T01:19:46.109Z,4.20
2023-01-11T01:22:22.457Z,4.20
2023-01-11T01:24:58.909Z,4.18
2023-01-11T01:27:35.086Z,4.20
2023-01-11T01:30:15.058Z,4.10
2023-01-11T01:32:51.206Z,4.10
2023-01-11T01:35:27.748Z,4.10
2023-01-11T01:38:04.224Z,4.10
2023-01-11T01:40:46.461Z,4.10
2023-01-11T01:43:23.161Z,4.10
2023-01-11T01:45:59.602Z,4.10
2023-01-11T01:48:37.185Z,4.10
2023-01-11T01:51:19.206Z,4.10
2023-01-11T01:54:02.084Z,4.10
2023-01-11T01:56:47.841Z,4.10
2023-01-11T01:59:27.493Z,4.10
2023-01-11T02:02:04.561Z,4.10
2023-01-11T02:04:47.092Z,4.10
2023-01-11T02:07:30.395Z,4.10
2023-01-11T02:10:11.860Z,4.12
2023-01-11T02:12:53.915Z,4.20
2023-01-11T02:15:30.679Z,4.20
2023-01-11T02:18:11.313Z,4.20
2023-01-11T02:21:18.488Z,4.20
2023-01-11T02:24:45.270Z,4.20
2023-01-11T02:27:50.047Z,4.20
2023-01-11T02:30:35.481Z,4.20
2023-01-11T02:33:30.783Z,4.20
2023-01-11T02:36:24.197Z,4.18
2023-01-11T02:39:15.543Z,4.18
2023-01-11T02:42:18.524Z,4.20
2023-01-11T02:45:08.708Z,4.14
2023-01-11T02:47:56.962Z,4.16
2023-01-11T02:50:45.275Z,4.10
2023-01-11T02:53:31.140Z,4.10
2023-01-11T02:56:13.355Z,4.10
2023-01-11T02:58:55.166Z,4.10
2023-01-11T03:01:30.175Z,4.10
2023-01-11T03:04:06.586Z,4.10
2023-01-11T03:06:42.984Z,4.10
2023-01-11T03:09:38.564Z,4.10
2023-01-11T03:12:55.160Z,4.10
2023-01-11T03:16:16.440Z,4.10
2023-01-11T03:19:11.358Z,4.10
2023-01-11T03:22:09.350Z,4.10
2023-01-11T03:24:54.027Z,4.08
2023-01-11T03:27:47.555Z,4.10
2023-01-11T03:30:35.792Z,4.10
2023-01-11T03:33:22.126Z,4.10
2023-01-11T03:36:10.133Z,4.10
2023-01-11T03:38:57.621Z,4.10
2023-01-11T03:41:42.956Z,4.10
2023-01-11T03:44:22.325Z,4.10
2023-01-11T03:47:06.090Z,4.10
2023-01-11T03:49:50.320Z,4.10
2023-01-11T03:52:34.044Z,4.10
2023-01-11T03:55:18.097Z,4.04
2023-01-11T03:57:56.211Z,4.00
2023-01-11T04:00:34.369Z,4.00
2023-01-11T04:03:12.704Z,4.02
2023-01-11T04:05:55.584Z,4.02
2023-01-11T04:08:32.418Z,4.00
2023-01-11T04:11:09.499Z,4.00
2023-01-11T04:13:45.725Z,4.00
2023-01-11T04:16:22.088Z,4.00
2023-01-11T04:18:58.584Z,4.00
2023-01-11T04:21:34.964Z,4.00
2023-01-11T04:24:13.694Z,4.00
2023-01-11T04:26:50.163Z,4.00
2023-01-11T04:29:26.398Z,4.00
2023-01-11T04:32:03.962Z,4.00
2023-01-11T04:34:40.129Z,3.98
2023-01-11T04:37:16.508Z,3.92
2023-01-11T04:39:52.795Z,3.90
2023-01-11T04:42:29.068Z,3.90
2023-01-11T04:45:06.430Z,3.90
2023-01-11T04:47:42.830Z,3.90
2023-01-11T04:50:20.009Z,3.90
2023-01-11T04:52:57.079Z,3.80
2023-01-11T04:55:33.254Z,3.80
2023-01-11T04:58:09.560Z,3.84
2023-01-11T05:00:45.751Z,3.80
2023-01-11T05:03:22.058Z,3.80
2023-01-11T05:06:05.456Z,3.80
2023-01-11T05:08:46.230Z,3.80
2023-01-11T05:11:22.807Z,3.80
2023-01-11T05:14:00.195Z,3.80
2023-01-11T05:16:36.749Z,3.80
2023-01-11T05:19:14.703Z,3.80
2023-01-11T05:21:51.026Z,3.80
2023-01-11T05:24:27.916Z,3.80
2023-01-11T05:27:04.778Z,3.80
2023-01-11T05:29:41.064Z,3.80
2023-01-11T05:32:17.776Z,3.80
2023-01-11T05:34:54.092Z,3.80
2023-01-11T05:37:30.651Z,3.80
2023-01-11T05:40:08.716Z,3.70
2023-01-11T05:42:46.679Z,3.70
2023-01-11T05:45:33.687Z,3.70
2023-01-11T05:48:10.813Z,3.70
2023-01-11T05:50:50.572Z,3.70
2023-01-11T05:53:27.954Z,3.70
2023-01-11T05:56:05.189Z,3.70
2023-01-11T05:58:41.547Z,3.70
2023-01-11T06:01:21.045Z,3.70
2023-01-11T06:03:57.445Z,3.70
2023-01-11T06:06:33.981Z,3.70
2023-01-11T06:09:10.378Z,3.60
2023-01-11T06:11:46.675Z,3.68
2023-01-11T06:14:23.040Z,3.66
2023-01-11T06:17:01.096Z,3.66
2023-01-11T06:19:37.491Z,3.60
2023-01-11T06:22:13.852Z,3.60
2023-01-11T06:24:50.243Z,3.60
2023-01-11T06:27:26.775Z,3.60
2023-01-11T06:30:02.989Z,3.60
2023-01-11T06:32:39.435Z,3.60
2023-01-11T06:35:16.208Z,3.60
2023-01-11T06:37:52.516Z,3.50
2023-01-11T06:40:29.809Z,3.50
2023-01-11T06:43:06.792Z,3.40
2023-01-11T06:45:44.472Z,3.40
2023-01-11T06:48:22.317Z,3.40
2023-01-11T06:51:00.834Z,3.40
2023-01-11T06:53:37.035Z,3.38
2023-01-11T06:56:19.029Z,3.40
2023-01-11T06:58:55.315Z,3.40
2023-01-11T07:01:32.490Z,3.34
2023-01-11T07:04:09.236Z,3.30
2023-01-11T07:06:45.785Z,3.30
2023-01-11T07:09:22.367Z,3.30
2023-01-11T07:11:59.025Z,3.40
2023-01-11T07:14:35.507Z,3.40
2023-01-11T07:17:11.859Z,3.40
2023-01-11T07:19:48.327Z,3.48
2023-01-11T07:22:25.104Z,3.50
2023-01-11T07:25:01.575Z,3.56
2023-01-11T07:27:37.938Z,3.60
2023-01-11T07:30:17.419Z,3.68
2023-01-11T07:32:53.613Z,3.70
2023-01-11T07:35:30.415Z,3.76
2023-01-11T07:38:10.459Z,3.80
2023-01-11T07:40:46.925Z,3.80
2023-01-11T07:43:23.855Z,3.90
2023-01-11T07:46:00.994Z,3.90
2023-01-11T07:48:37.564Z,4.00
2023-01-11T07:51:14.034Z,4.00
2023-01-11T07:53:50.926Z,4.00
2023-01-11T07:56:27.545Z,4.00
2023-01-11T07:59:04.182Z,4.02
2023-01-11T08:01:40.593Z,4.04
2023-01-11T08:04:17.602Z,4.10
2023-01-11T08:06:53.967Z,4.10
2023-01-11T08:09:30.442Z,4.10
2023-01-11T08:12:25.221Z,4.10
2023-01-11T08:15:01.597Z,4.10
2023-01-11T08:17:38.657Z,4.10
2023-01-11T08:20:16.757Z,4.14
2023-01-11T08:22:52.965Z,4.20
2023-01-11T08:25:29.287Z,4.20
2023-01-11T08:28:09.679Z,4.30
2023-01-11T08:30:45.962Z,4.30
2023-01-11T08:33:22.804Z,4.30
2023-01-11T08:35:59.039Z,4.20
2023-01-11T08:38:35.840Z,4.20
2023-01-11T08:41:12.197Z,4.20
2023-01-11T08:43:49.971Z,4.20
2023-01-11T08:46:26.718Z,4.30
2023-01-11T08:49:03.354Z,4.30
2023-01-11T08:51:42.074Z,4.40
2023-01-11T08:54:19.375Z,4.42
2023-01-11T08:56:56.125Z,4.50
2023-01-11T08:59:32.491Z,4.60
2023-01-11T09:02:10.389Z,4.70
2023-01-11T09:04:47.409Z,4.80
2023-01-11T09:07:23.965Z,4.90
2023-01-11T09:10:00.633Z,4.90
2023-01-11T09:12:37.364Z,4.92
2023-01-11T09:15:15.631Z,4.96
2023-01-11T09:17:52.909Z,5.00
2023-01-11T09:20:29.176Z,5.00
2023-01-11T09:23:05.796Z,5.00
2023-01-11T09:25:42.204Z,5.00
2023-01-11T09:28:18.848Z,5.00
2023-01-11T09:31:02.946Z,5.00
2023-01-11T09:33:39.815Z,5.10
2023-01-11T09:36:19.145Z,5.10
2023-01-11T09:38:57.658Z,5.10
2023-01-11T09:42:06.416Z,5.14
2023-01-11T09:44:56.816Z,5.20
2023-01-11T09:47:43.305Z,5.20
2023-01-11T09:50:27.751Z,5.30
2023-01-11T09:53:09.809Z,5.40
2023-01-11T09:55:52.248Z,5.50
2023-01-11T09:58:59.867Z,5.52
2023-01-11T10:01:43.833Z,5.60
2023-01-11T10:05:10.357Z,5.62
2023-01-11T10:18:29.106Z,6.20
2023-01-11T10:18:45.979Z,6.20
2023-01-11T10:21:29.345Z,6.26
2023-01-11T10:24:16.254Z,6.20
2023-01-11T10:26:59.240Z,6.22
2023-01-11T10:29:59.731Z,6.22
2023-01-11T10:32:53.229Z,6.22
2023-01-11T10:35:59.200Z,6.20
2023-01-11T10:38:54.689Z,6.20
2023-01-11T10:41:51.263Z,6.30
2023-01-11T10:44:39.824Z,6.30
2023-01-11T10:47:24.343Z,6.30
2023-01-11T10:50:14.949Z,6.40
2023-01-11T10:53:02.859Z,6.56
2023-01-11T10:55:57.618Z,6.68
2023-01-11T10:59:20.834Z,6.70
2023-01-11T11:02:15.583Z,6.60
2023-01-11T11:05:17.896Z,6.60
2023-01-11T11:07:59.878Z,6.60
2023-01-11T11:10:47.688Z,6.70
2023-01-11T11:13:47.896Z,6.64
2023-01-11T11:16:55.150Z,6.70
2023-01-11T11:19:35.778Z,6.70
2023-01-11T11:22:14.101Z,6.60
2023-01-11T11:24:59.653Z,6.70
2023-01-11T11:27:42.309Z,6.70
2023-01-11T11:30:33.035Z,6.70
2023-01-11T11:33:21.828Z,6.70
2023-01-11T11:36:05.413Z,6.70
2023-01-11T11:39:02.053Z,6.70
2023-01-11T11:41:51.644Z,6.70
2023-01-11T11:44:30.305Z,6.70
2023-01-11T11:47:15.368Z,6.60
2023-01-11T11:49:51.778Z,6.60
2023-01-11T11:52:28.124Z,6.70
2023-01-11T11:55:09.789Z,6.70
2023-01-11T11:57:48.477Z,6.70
2023-01-11T12:00:31.873Z,6.80
2023-01-11T12:03:18.263Z,6.80
2023-01-11T12:06:05.332Z,6.80
2023-01-11T12:08:45.420Z,6.88
2023-01-11T12:11:30.429Z,6.80
2023-01-11T12:14:23.919Z,6.80
2023-01-11T12:17:02.555Z,6.80
2023-01-11T12:19:47.917Z,6.80
2023-01-11T12:22:28.023Z,6.90
2023-01-11T12:25:26.544Z,6.94
2023-01-11T12:28:19.771Z,7.00
2023-01-11T12:31:10.325Z,7.02
2023-01-11T12:33:59.749Z,7.10
2023-01-11T12:36:49.856Z,7.10
2023-01-11T12:39:43.715Z,7.10
2023-01-11T12:43:04.576Z,7.10
2023-01-11T12:45:56.857Z,7.18
2023-01-11T12:49:05.108Z,7.20
2023-01-11T12:52:45.323Z,7.20
2023-01-11T12:55:42.793Z,7.20
2023-01-11T12:58:34.417Z,7.10
2023-01-11T13:01:41.933Z,7.08
2023-01-11T13:04:57.705Z,7.04
2023-01-11T13:08:04.322Z,7.00
2023-01-11T13:10:58.654Z,6.92
2023-01-11T13:13:50.806Z,6.90
2023-01-11T13:16:36.483Z,6.80
2023-01-11T13:19:23.103Z,6.80
2023-01-11T13:22:05.471Z,6.70
2023-01-11T13:24:46.914Z,6.70
2023-01-11T13:27:27.383Z,6.62
2023-01-11T13:30:07.277Z,6.60
2023-01-11T13:32:50.331Z,6.52
2023-01-11T13:35:38.522Z,6.50
2023-01-11T13:38:35.111Z,6.40
2023-01-11T13:41:24.699Z,6.40
2023-01-11T13:44:11.511Z,6.30
2023-01-11T13:47:06.090Z,6.30
2023-01-11T13:50:03.899Z,6.20
2023-01-11T13:53:02.650Z,6.20
2023-01-11T13:55:53.208Z,6.12
2023-01-11T13:58:37.522Z,6.10
2023-01-11T14:01:19.819Z,6.04
2023-01-11T14:04:02.228Z,6.02
2023-01-11T14:07:07.791Z,6.00
2023-01-11T14:10:10.695Z,6.00
2023-01-11T14:13:38.121Z,5.98
2023-01-11T14:16:27.042Z,5.90
2023-01-11T14:19:16.124Z,5.82
2023-01-11T14:22:13.988Z,5.80
2023-01-11T14:25:04.089Z,5.80
2023-01-11T14:28:30.602Z,5.70
2023-01-11T14:31:40.374Z,5.70
2023-01-11T14:35:18.139Z,5.60
2023-01-11T14:39:01.734Z,5.50
2023-01-11T14:42:31.231Z,5.40
2023-01-11T14:45:34.675Z,5.30
2023-01-11T14:48:46.584Z,5.20
2023-01-11T14:51:36.711Z,5.16
2023-01-11T14:54:23.279Z,5.10
2023-01-11T14:57:02.153Z,5.00
2023-01-11T14:59:43.848Z,4.90
2023-01-11T15:02:36.289Z,4.80
2023-01-11T15:05:38.147Z,4.70
2023-01-11T15:08:29.420Z,4.60
2023-01-11T15:11:22.291Z,4.50
2023-01-11T15:14:05.514Z,4.40
2023-01-11T15:17:16.987Z,4.30
2023-01-11T15:19:54.681Z,4.20
2023-01-11T15:22:36.555Z,4.10
2023-01-11T15:25:28.795Z,4.00
2023-01-11T15:28:27.784Z,3.90
2023-01-11T15:31:07.711Z,3.80
2023-01-11T15:33:56.934Z,3.70
2023-01-11T15:37:20.796Z,3.60
2023-01-11T15:40:04.409Z,3.50
2023-01-11T15:43:40.765Z,3.40
2023-01-11T15:47:31.091Z,3.30
2023-01-11T15:51:18.141Z,3.20
2023-01-11T15:54:41.916Z,3.10
2023-01-11T15:58:00.507Z,3.00
2023-01-11T16:01:14.283Z,2.90
2023-01-11T16:04:30.340Z,2.80
2023-01-11T16:07:22.430Z,2.70
2023-01-11T16:10:55.179Z,2.60
2023-01-11T16:13:46.787Z,2.50
2023-01-11T16:16:29.264Z,2.44
2023-01-11T16:19:20.046Z,2.40
2023-01-11T16:22:02.093Z,2.40
2023-01-11T16:24:47.727Z,2.30
2023-01-11T16:27:30.990Z,2.30
2023-01-11T16:30:16.021Z,2.22
2023-01-11T16:32:52.839Z,2.20
2023-01-11T16:35:30.025Z,2.20
2023-01-11T16:38:07.759Z,2.20
2023-01-11T16:40:50.428Z,2.10
2023-01-11T16:43:33.405Z,2.10
2023-01-11T16:46:31.265Z,2.10
2023-01-11T16:49:19.353Z,2.10
2023-01-11T16:52:01.050Z,2.04
2023-01-11T16:54:39.830Z,2.00
2023-01-11T16:57:18.695Z,2.00
2023-01-11T17:00:06.710Z,2.00
2023-01-11T17:02:47.285Z,1.90
2023-01-11T17:05:28.950Z,1.90
2023-01-11T17:11:29.593Z,1.78
2023-01-11T17:15:03.036Z,1.72
2023-01-11T17:17:42.412Z,1.70
2023-01-11T17:20:30.031Z,1.60
2023-01-11T17:23:08.571Z,1.60
2023-01-11T17:25:45.442Z,1.52
2023-01-11T17:28:24.229Z,1.50
2023-01-11T17:31:01.345Z,1.40
2023-01-11T17:33:38.821Z,1.30
2023-01-11T17:36:15.643Z,1.30
2023-01-11T17:38:54.304Z,1.30
2023-01-11T17:41:51.201Z,1.20
2023-01-11T17:44:46.094Z,1.20
2023-01-11T17:47:23.665Z,1.10
2023-01-11T17:50:03.239Z,1.00
2023-01-11T17:52:54.088Z,0.98
2023-01-11T17:55:32.078Z,0.90
2023-01-11T17:58:26.310Z,0.80
2023-01-11T18:01:27.902Z,0.80
2023-01-11T18:04:05.845Z,0.70
2023-01-11T18:06:45.245Z,0.70
2023-01-11T18:09:33.018Z,0.66
2023-01-11T18:12:18.984Z,0.60
2023-01-11T18:15:00.976Z,0.60
2023-01-11T18:17:42.294Z,0.60
2023-01-11T18:20:42.705Z,0.50
2023-01-11T18:23:27.040Z,0.50
2023-01-11T18:26:32.033Z,0.50
2023-01-11T18:29:19.397Z,0.46
2023-01-11T18:31:55.938Z,0.40
2023-01-11T18:34:33.011Z,0.40
2023-01-11T18:37:11.379Z,0.40
2023-01-11T18:39:47.864Z,0.40
2023-01-11T18:42:32.236Z,0.30
2023-01-11T18:45:11.339Z,0.30
2023-01-11T18:47:48.395Z,0.30
2023-01-11T18:50:25.328Z,0.22
2023-01-11T18:53:01.798Z,0.22
2023-01-11T18:55:38.275Z,0.20
2023-01-11T18:58:15.551Z,0.26
2023-01-11T19:00:52.111Z,0.30
2023-01-11T19:03:29.310Z,0.30
2023-01-11T19:06:06.902Z,0.30
2023-01-11T19:08:43.882Z,0.30
2023-01-11T19:11:20.655Z,0.30
2023-01-11T19:13:57.433Z,0.30
2023-01-11T19:16:34.514Z,0.30
2023-01-11T19:19:11.088Z,0.30
2023-01-11T19:21:47.556Z,0.30
2023-01-11T19:24:24.127Z,0.26
2023-01-11T19:27:01.056Z,0.26
2023-01-11T19:29:37.532Z,0.20
2023-01-11T19:32:15.879Z,0.20
2023-01-11T19:34:52.308Z,0.20
2023-01-11T19:37:32.543Z,0.12
2023-01-11T19:40:11.979Z,0.12
2023-01-11T19:42:48.920Z,0.10
2023-01-11T19:45:25.488Z,0.10
2023-01-11T19:48:02.979Z,0.10
2023-01-11T19:50:39.542Z,0.10
2023-01-11T19:53:16.018Z,0.00
2023-01-11T19:55:52.672Z,0.00
2023-01-11T19:58:29.375Z,0.00
2023-01-11T20:01:12.043Z,0.00
2023-01-11T20:03:48.998Z,0.00
2023-01-11T20:06:25.727Z,0.00
2023-01-11T20:09:02.508Z,-0.04
2023-01-11T20:11:39.230Z,-0.10
2023-01-11T20:14:17.527Z,-0.10
2023-01-11T20:16:55.127Z,-0.14
2023-01-11T20:19:32.254Z,-0.14
2023-01-11T20:22:09.358Z,-0.12
2023-01-11T20:24:46.292Z,-0.10
2023-01-11T20:27:23.169Z,-0.12
2023-01-11T20:30:00.478Z,-0.20
2023-01-11T20:32:41.801Z,-0.18
2023-01-11T20:35:19.978Z,-0.14
2023-01-11T20:37:59.881Z,-0.20
2023-01-11T20:40:39.641Z,-0.20
2023-01-11T20:43:17.573Z,-0.20
2023-01-11T20:46:06.696Z,-0.28
2023-01-11T20:48:44.829Z,-0.30
2023-01-11T20:51:22.545Z,-0.30
2023-01-11T20:54:00.003Z,-0.30
2023-01-11T20:56:39.135Z,-0.30
2023-01-11T20:59:20.069Z,-0.30
2023-01-11T21:01:57.862Z,-0.32
2023-01-11T21:04:35.830Z,-0.34
2023-01-11T21:07:13.295Z,-0.34
2023-01-11T21:09:50.247Z,-0.30
2023-01-11T21:12:27.758Z,-0.30
2023-01-11T21:15:04.871Z,-0.30
2023-01-11T21:17:41.650Z,-0.30
2023-01-11T21:20:19.562Z,-0.30
2023-01-11T21:22:56.481Z,-0.30
2023-01-11T21:25:36.207Z,-0.30
2023-01-11T21:28:13.353Z,-0.26
2023-01-11T21:30:50.144Z,-0.24
2023-01-11T21:33:27.324Z,-0.20
2023-01-11T21:36:12.181Z,-0.20
2023-01-11T21:38:49.518Z,-0.20
2023-01-11T21:41:46.638Z,-0.10
2023-01-11T21:44:27.344Z,-0.10
2023-01-11T21:47:05.008Z,0.00
2023-01-11T21:49:41.638Z,0.10
2023-01-11T21:52:18.042Z,0.10
2023-01-11T21:54:54.391Z,0.20
2023-01-11T21:57:30.813Z,0.20
2023-01-11T22:00:09.353Z,0.22
2023-01-11T22:02:50.727Z,0.30
2023-01-11T22:05:27.912Z,0.40
2023-01-11T22:08:05.199Z,0.40
2023-01-11T22:10:42.080Z,0.50
2023-01-11T22:13:18.547Z,0.60
2023-01-11T22:15:54.843Z,0.60
2023-01-11T22:18:31.590Z,0.70
2023-01-11T22:21:14.639Z,0.70
2023-01-11T22:23:56.462Z,0.80
2023-01-11T22:26:35.957Z,0.80
2023-01-11T22:29:15.360Z,0.90
2023-01-11T22:31:56.976Z,1.00
2023-01-11T22:34:34.660Z,1.02
2023-01-11T22:37:11.992Z,1.10
2023-01-11T22:39:48.301Z,1.20
2023-01-11T22:42:25.082Z,1.26
2023-01-11T22:45:02.189Z,1.30
2023-01-11T22:47:39.041Z,1.36
2023-01-11T22:50:16.953Z,1.40
2023-01-11T22:52:53.316Z,1.48
2023-01-11T22:55:29.898Z,1.50
2023-01-11T22:58:06.240Z,1.60
2023-01-11T23:00:42.615Z,1.70
2023-01-11T23:03:19.486Z,1.70
2023-01-11T23:05:56.664Z,1.80
2023-01-11T23:08:35.674Z,1.80
2023-01-11T23:11:35.932Z,1.90
2023-01-11T23:14:15.843Z,1.90
2023-01-11T23:16:52.794Z,2.00
2023-01-11T23:19:32.093Z,2.00
2023-01-11T23:22:09.550Z,2.00
2023-01-11T23:24:45.924Z,2.02
2023-01-11T23:27:22.189Z,2.08
2023-01-11T23:29:59.105Z,2.10
2023-01-11T23:32:36.141Z,2.10
2023-01-11T23:35:14.043Z,2.10
2023-01-11T23:37:50.543Z,2.10
2023-01-11T23:40:27.048Z,2.10
2023-01-11T23:43:05.173Z,2.10
2023-01-11T23:45:42.730Z,2.10
2023-01-11T23:48:18.956Z,2.18
2023-01-11T23:50:55.224Z,2.20
2023-01-11T23:53:31.469Z,2.20
2023-01-11T23:56:09.305Z,2.20
2023-01-11T23:58:45.460Z,2.20
